createdAt,value
2017-12-26T00:01:30.896Z,30.87
2017-12-26T00:03:58.366Z,28.37
2017-12-26T00:06:25.792Z,29.80
2017-12-26T00:08:53.997Z,31.37
2017-12-26T00:11:21.424Z,31.33
2017-12-26T00:13:49.641Z,32.60
2017-12-26T00:16:17.088Z,31.37
2017-12-26T00:18:44.519Z,28.53
2017-12-26T00:21:12.814Z,30.50
2017-12-26T00:23:40.244Z,28.90
2017-12-26T00:26:08.457Z,31.93
2017-12-26T00:28:35.883Z,29.90
2017-12-26T00:31:04.088Z,29.17
2017-12-26T00:33:31.517Z,25.87
2017-12-26T00:35:58.952Z,27.23
2017-12-26T00:38:26.388Z,29.10
2017-12-26T00:40:53.840Z,27.20
2017-12-26T00:43:21.288Z,27.43
2017-12-26T00:45:48.737Z,26.10
2017-12-26T00:48:16.172Z,28.30
2017-12-26T00:50:43.653Z,26.70
2017-12-26T00:53:11.064Z,28.33
2017-12-26T00:55:39.275Z,26.50
2017-12-26T00:58:06.700Z,29.67
2017-12-26T01:00:34.151Z,28.00
2017-12-26T01:03:02.352Z,32.33
2017-12-26T01:05:29.792Z,28.03
2017-12-26T01:07:57.224Z,29.00
2017-12-26T01:10:24.666Z,29.10
2017-12-26T01:12:52.108Z,29.07
2017-12-26T01:15:19.535Z,26.87
2017-12-26T01:17:46.961Z,28.77
2017-12-26T01:20:15.157Z,29.33
2017-12-26T01:22:42.608Z,27.50
2017-12-26T01:25:10.044Z,28.90
2017-12-26T01:27:37.495Z,26.07
2017-12-26T01:30:04.934Z,27.80
2017-12-26T01:32:32.369Z,27.77
2017-12-26T01:34:59.800Z,26.50
2017-12-26T01:37:27.251Z,25.40
2017-12-26T01:39:55.430Z,26.57
2017-12-26T01:42:22.863Z,22.77
2017-12-26T01:44:51.063Z,25.27
2017-12-26T01:47:18.495Z,24.40
2017-12-26T01:49:46.694Z,23.47
2017-12-26T01:52:14.127Z,26.60
2017-12-26T01:54:42.330Z,24.47
2017-12-26T01:57:09.776Z,24.27
2017-12-26T01:59:38.004Z,24.53
2017-12-26T02:02:06.243Z,24.33
2017-12-26T02:04:33.675Z,21.20
2017-12-26T02:07:01.879Z,21.57
2017-12-26T02:09:29.298Z,22.93
2017-12-26T02:11:57.511Z,21.07
2017-12-26T02:14:24.932Z,23.73
2017-12-26T02:16:53.148Z,20.23
2017-12-26T02:19:20.574Z,21.33
2017-12-26T02:21:48.774Z,22.10
2017-12-26T02:24:16.203Z,20.67
2017-12-26T02:26:44.396Z,23.60
2017-12-26T02:29:11.844Z,24.77
2017-12-26T02:31:40.043Z,26.23
2017-12-26T02:34:07.480Z,23.53
2017-12-26T02:36:34.928Z,24.40
2017-12-26T02:39:03.111Z,21.70
2017-12-26T02:41:30.546Z,22.77
2017-12-26T02:43:58.742Z,22.63
2017-12-26T02:46:26.184Z,22.57
2017-12-26T02:48:54.448Z,22.10
2017-12-26T02:51:21.833Z,23.57
2017-12-26T02:53:49.276Z,21.07
2017-12-26T02:56:17.467Z,22.87
2017-12-26T02:58:44.894Z,22.80
2017-12-26T03:01:13.091Z,20.50
2017-12-26T03:03:40.540Z,22.10
2017-12-26T03:06:08.742Z,21.30
2017-12-26T03:08:36.171Z,19.57
2017-12-26T03:11:04.376Z,19.10
2017-12-26T03:13:31.836Z,18.60
2017-12-26T03:15:59.266Z,20.00
2017-12-26T03:18:26.703Z,18.73
2017-12-26T03:20:54.918Z,19.70
2017-12-26T03:23:22.344Z,20.23
2017-12-26T03:25:50.544Z,20.33
2017-12-26T03:28:17.974Z,20.43
2017-12-26T03:30:46.186Z,20.37
2017-12-26T03:33:13.610Z,20.77
2017-12-26T03:35:41.817Z,18.77
2017-12-26T03:38:09.247Z,21.97
2017-12-26T03:40:36.678Z,20.20
2017-12-26T03:43:04.884Z,19.67
2017-12-26T03:45:32.317Z,19.23
2017-12-26T03:48:00.508Z,20.00
2017-12-26T03:50:28.699Z,20.17
2017-12-26T03:52:56.143Z,21.57
2017-12-26T03:55:23.594Z,21.77
2017-12-26T03:57:51.783Z,21.53
2017-12-26T04:00:19.215Z,21.17
2017-12-26T04:02:47.444Z,19.20
2017-12-26T04:05:14.867Z,20.90
2017-12-26T04:07:43.311Z,19.80
2017-12-26T04:10:10.752Z,19.03
2017-12-26T04:12:38.191Z,20.83
2017-12-26T04:15:05.626Z,20.50
2017-12-26T04:17:33.076Z,21.20
2017-12-26T04:20:00.507Z,18.43
2017-12-26T04:22:28.727Z,18.87
2017-12-26T04:24:56.139Z,21.30
2017-12-26T04:27:24.335Z,18.50
2017-12-26T04:29:51.763Z,19.23
2017-12-26T04:32:19.212Z,18.47
2017-12-26T04:34:46.683Z,19.03
2017-12-26T04:37:14.143Z,22.00
2017-12-26T04:39:41.552Z,19.50
2017-12-26T04:42:08.987Z,20.00
2017-12-26T04:44:36.416Z,19.50
2017-12-26T04:47:04.615Z,20.87
2017-12-26T04:49:32.044Z,19.83
2017-12-26T04:51:59.477Z,19.17
2017-12-26T04:54:26.908Z,17.90
2017-12-26T04:56:54.343Z,20.33
2017-12-26T04:59:21.774Z,19.70
2017-12-26T05:01:50.967Z,18.30
2017-12-26T05:04:19.168Z,20.53
2017-12-26T05:06:46.603Z,17.70
2017-12-26T05:09:14.841Z,17.47
2017-12-26T05:11:42.263Z,18.77
2017-12-26T05:14:09.695Z,17.40
2017-12-26T05:16:37.932Z,19.60
2017-12-26T05:19:06.146Z,20.37
2017-12-26T05:21:34.343Z,19.60
2017-12-26T05:24:01.796Z,17.63
2017-12-26T05:26:29.222Z,21.40
2017-12-26T05:28:57.435Z,21.37
2017-12-26T05:31:24.872Z,20.10
2017-12-26T05:33:53.084Z,18.43
2017-12-26T05:36:20.523Z,21.10
2017-12-26T05:38:47.964Z,20.37
2017-12-26T05:41:15.395Z,21.67
2017-12-26T05:43:42.827Z,21.40
2017-12-26T05:46:10.263Z,19.40
2017-12-26T05:48:37.720Z,17.20
2017-12-26T05:51:05.151Z,18.67
2017-12-26T05:53:32.583Z,18.00
2017-12-26T05:56:00.013Z,18.90
2017-12-26T05:58:27.454Z,20.07
2017-12-26T06:00:54.887Z,18.13
2017-12-26T06:03:22.327Z,18.70
2017-12-26T06:05:50.541Z,21.53
2017-12-26T06:08:17.976Z,19.10
2017-12-26T06:10:47.353Z,18.60
2017-12-26T06:13:15.534Z,18.23
2017-12-26T06:15:43.745Z,17.90
2017-12-26T06:18:11.179Z,18.20
2017-12-26T06:20:38.616Z,18.60
2017-12-26T06:23:06.822Z,18.27
2017-12-26T06:25:34.260Z,17.97
2017-12-26T06:28:01.690Z,17.60
2017-12-26T06:30:29.129Z,18.77
2017-12-26T06:32:56.562Z,17.20
2017-12-26T06:35:24.017Z,17.97
2017-12-26T06:37:51.447Z,17.17
2017-12-26T06:40:18.875Z,18.00
2017-12-26T06:42:46.310Z,18.90
2017-12-26T06:45:13.752Z,18.10
2017-12-26T06:47:41.179Z,18.37
2017-12-26T06:50:08.629Z,16.73
2017-12-26T06:52:36.060Z,18.00
2017-12-26T06:55:03.495Z,18.40
2017-12-26T06:57:30.943Z,17.33
2017-12-26T06:59:58.385Z,18.00
2017-12-26T07:02:25.824Z,16.57
2017-12-26T07:04:53.247Z,18.90
2017-12-26T07:07:20.699Z,18.03
2017-12-26T07:09:48.136Z,19.33
2017-12-26T07:12:15.572Z,18.20
2017-12-26T07:14:42.998Z,17.53
2017-12-26T07:17:10.435Z,16.63
2017-12-26T07:19:42.635Z,19.50
2017-12-26T07:22:15.655Z,17.27
2017-12-26T07:24:43.092Z,19.00
2017-12-26T07:27:10.524Z,15.63
2017-12-26T07:29:37.981Z,17.50
2017-12-26T07:35:10.623Z,15.93
2017-12-26T07:37:57.402Z,18.27
2017-12-26T07:40:24.832Z,18.43
2017-12-26T07:42:53.036Z,15.30
2017-12-26T07:45:34.629Z,16.63
2017-12-26T07:48:02.060Z,17.03
2017-12-26T07:50:30.319Z,19.03
2017-12-26T07:52:57.765Z,17.20
2017-12-26T07:55:25.243Z,17.53
2017-12-26T07:57:52.680Z,16.53
2017-12-26T08:00:20.112Z,18.27
2017-12-26T08:02:47.554Z,19.60
2017-12-26T08:05:14.987Z,20.23
2017-12-26T08:07:43.196Z,22.47
2017-12-26T08:10:10.632Z,26.70
2017-12-26T08:12:38.077Z,26.17
2017-12-26T08:15:05.508Z,26.17
2017-12-26T08:17:32.945Z,24.90
2017-12-26T08:20:00.470Z,25.60
2017-12-26T08:22:27.904Z,28.80
2017-12-26T08:24:56.111Z,26.87
2017-12-26T08:27:23.549Z,22.47
2017-12-26T08:29:51.005Z,25.27
2017-12-26T08:32:19.179Z,24.93
2017-12-26T08:34:46.658Z,26.00
2017-12-26T08:37:14.112Z,25.90
2017-12-26T08:39:41.624Z,21.00
2017-12-26T08:42:09.831Z,21.73
2017-12-26T08:44:37.264Z,20.37
2017-12-26T08:47:05.472Z,21.10
2017-12-26T08:49:32.993Z,20.57
2017-12-26T08:52:00.423Z,20.10
2017-12-26T08:54:27.866Z,19.93
2017-12-26T08:56:55.291Z,17.40
2017-12-26T08:59:22.722Z,22.17
2017-12-26T09:01:50.923Z,19.07
2017-12-26T09:04:18.364Z,18.90
2017-12-26T09:06:46.554Z,17.37
2017-12-26T09:09:13.988Z,18.13
2017-12-26T09:11:42.183Z,18.73
2017-12-26T09:14:09.724Z,19.30
2017-12-26T09:16:37.979Z,19.53
2017-12-26T09:19:05.420Z,19.77
2017-12-26T09:21:32.857Z,22.10
2017-12-26T09:24:00.293Z,19.50
2017-12-26T09:26:27.724Z,20.10
2017-12-26T09:28:55.940Z,20.70
2017-12-26T09:31:23.368Z,18.27
2017-12-26T09:33:50.808Z,20.37
2017-12-26T09:36:19.005Z,19.90
2017-12-26T09:38:46.436Z,21.87
2017-12-26T09:41:14.640Z,22.33
2017-12-26T09:43:43.082Z,21.83
2017-12-26T09:46:10.519Z,21.67
2017-12-26T09:48:37.971Z,21.07
2017-12-26T09:51:05.412Z,21.30
2017-12-26T09:53:32.843Z,16.50
2017-12-26T09:56:00.293Z,18.03
2017-12-26T09:58:28.486Z,16.83
2017-12-26T10:00:55.914Z,12.00
2017-12-26T10:03:24.116Z,10.40
2017-12-26T10:05:51.548Z,12.53
2017-12-26T10:08:19.761Z,10.63
2017-12-26T10:10:47.180Z,12.23
2017-12-26T10:13:15.387Z,12.13
2017-12-26T10:15:42.816Z,10.60
2017-12-26T10:18:11.003Z,11.50
2017-12-26T10:20:38.489Z,9.90
2017-12-26T10:23:06.637Z,8.70
2017-12-26T10:25:34.836Z,9.40
2017-12-26T10:28:02.272Z,9.33
2017-12-26T10:30:29.703Z,8.50
2017-12-26T10:32:57.900Z,9.50
2017-12-26T10:35:25.331Z,8.10
2017-12-26T10:37:53.534Z,8.60
2017-12-26T10:40:20.968Z,9.03
2017-12-26T10:42:49.159Z,9.30
2017-12-26T10:45:16.584Z,8.30
2017-12-26T10:47:44.031Z,6.67
2017-12-26T10:50:11.448Z,8.20
2017-12-26T10:52:38.962Z,7.40
2017-12-26T10:55:06.390Z,7.93
2017-12-26T10:57:33.877Z,6.43
2017-12-26T11:00:01.306Z,6.87
2017-12-26T11:02:28.735Z,6.10
2017-12-26T11:04:59.923Z,6.30
2017-12-26T11:07:27.361Z,5.23
2017-12-26T11:09:56.788Z,5.90
2017-12-26T11:12:24.229Z,5.20
2017-12-26T11:14:51.653Z,5.27
2017-12-26T11:17:19.077Z,5.70
2017-12-26T11:19:47.279Z,5.53
2017-12-26T11:22:14.709Z,4.40
2017-12-26T11:24:42.896Z,4.90
2017-12-26T11:27:12.379Z,3.90
2017-12-26T11:29:39.805Z,2.77
2017-12-26T11:32:07.241Z,2.23
2017-12-26T11:34:34.717Z,2.60
2017-12-26T11:37:02.133Z,2.10
2017-12-26T11:39:29.564Z,1.60
2017-12-26T11:41:57.761Z,1.10
2017-12-26T11:44:25.193Z,1.70
2017-12-26T11:46:53.465Z,0.87
2017-12-26T11:49:20.924Z,0.80
2017-12-26T11:51:48.357Z,0.70
2017-12-26T11:54:15.874Z,0.80
2017-12-26T11:56:43.259Z,0.60
2017-12-26T11:59:10.734Z,0.73
2017-12-26T12:01:39.208Z,0.70
2017-12-26T12:04:06.640Z,1.07
2017-12-26T12:06:34.227Z,0.80
2017-12-26T12:09:01.641Z,0.70
2017-12-26T12:11:29.056Z,0.87
2017-12-26T12:13:56.495Z,0.80
2017-12-26T12:16:23.976Z,0.80
2017-12-26T12:18:51.405Z,0.90
2017-12-26T12:21:18.849Z,1.10
2017-12-26T12:23:46.280Z,1.10
2017-12-26T12:26:13.704Z,1.47
2017-12-26T12:28:41.145Z,1.00
2017-12-26T12:31:08.570Z,0.80
2017-12-26T12:33:36.020Z,0.97
2017-12-26T12:36:03.427Z,1.07
2017-12-26T12:38:30.884Z,1.07
2017-12-26T12:40:58.318Z,1.73
2017-12-26T12:43:25.760Z,1.60
2017-12-26T12:45:53.212Z,1.10
2017-12-26T12:48:20.621Z,1.00
2017-12-26T12:50:48.837Z,1.20
2017-12-26T12:53:16.269Z,1.10
2017-12-26T12:55:44.472Z,1.00
2017-12-26T12:58:11.897Z,1.13
2017-12-26T13:00:40.101Z,1.10
2017-12-26T13:03:07.530Z,1.27
2017-12-26T13:05:34.970Z,0.97
2017-12-26T13:08:03.171Z,1.07
2017-12-26T13:10:31.370Z,0.77
2017-12-26T13:12:58.801Z,0.83
2017-12-26T13:15:26.237Z,0.57
2017-12-26T13:17:54.434Z,0.73
2017-12-26T13:20:21.924Z,0.80
2017-12-26T13:22:52.080Z,0.70
2017-12-26T13:25:19.517Z,1.00
2017-12-26T13:27:46.964Z,0.90
2017-12-26T13:30:14.383Z,1.00
2017-12-26T13:32:41.845Z,0.90
2017-12-26T13:35:10.014Z,0.80
2017-12-26T13:37:37.462Z,0.70
2017-12-26T13:40:06.362Z,1.03
2017-12-26T13:42:33.780Z,0.77
2017-12-26T13:45:01.209Z,0.90
2017-12-26T13:47:28.652Z,0.90
2017-12-26T13:49:56.078Z,0.73
